createdAt,value
2018-06-28T00:00:46.593Z,2.00
2018-06-28T00:01:46.522Z,2.00
2018-06-28T00:02:46.569Z,2.40
2018-06-28T00:03:46.607Z,2.40
2018-06-28T00:04:46.642Z,2.40
2018-06-28T00:05:46.648Z,2.40
2018-06-28T00:06:46.558Z,2.40
2018-06-28T00:07:46.569Z,2.40
2018-06-28T00:08:46.692Z,2.40
2018-06-28T00:09:46.608Z,2.40
2018-06-28T00:10:46.574Z,2.40
2018-06-28T00:11:46.564Z,2.40
2018-06-28T00:12:46.614Z,3.20
2018-06-28T00:13:46.612Z,3.20
2018-06-28T00:14:46.546Z,3.20
2018-06-28T00:15:46.613Z,3.20
2018-06-28T00:16:46.616Z,3.20
2018-06-28T00:17:46.548Z,3.20
2018-06-28T00:18:46.639Z,3.20
2018-06-28T00:19:46.616Z,3.20
2018-06-28T00:20:46.615Z,3.20
2018-06-28T00:21:46.555Z,3.20
2018-06-28T00:22:46.538Z,4.00
2018-06-28T00:23:46.633Z,4.00
2018-06-28T00:24:46.562Z,4.00
2018-06-28T00:25:46.611Z,4.00
2018-06-28T00:26:46.616Z,4.00
2018-06-28T00:27:46.526Z,4.00
2018-06-28T00:28:46.610Z,4.00
2018-06-28T00:29:46.509Z,4.00
2018-06-28T00:30:46.540Z,4.00
2018-06-28T00:31:46.561Z,4.00
2018-06-28T00:32:46.586Z,3.99
2018-06-28T00:33:46.587Z,3.99
2018-06-28T00:34:46.541Z,3.99
2018-06-28T00:35:46.564Z,3.99
2018-06-28T00:36:46.626Z,3.99
2018-06-28T00:37:46.685Z,3.99
2018-06-28T00:38:46.581Z,3.99
2018-06-28T00:39:46.657Z,3.99
2018-06-28T00:40:46.622Z,3.99
2018-06-28T00:41:46.590Z,3.99
2018-06-28T00:42:46.592Z,3.20
2018-06-28T00:43:46.636Z,3.20
2018-06-28T00:44:46.670Z,3.20
2018-06-28T00:45:46.675Z,3.20
2018-06-28T00:46:46.659Z,3.20
2018-06-28T00:47:46.641Z,3.20
2018-06-28T00:48:46.600Z,3.20
2018-06-28T00:49:46.673Z,3.20
2018-06-28T00:50:46.660Z,3.20
2018-06-28T00:51:46.605Z,3.20
2018-06-28T00:52:46.622Z,2.00
2018-06-28T00:53:46.627Z,2.00
2018-06-28T00:54:46.554Z,2.00
2018-06-28T00:55:46.627Z,2.00
2018-06-28T00:56:46.599Z,2.00
2018-06-28T00:57:46.638Z,2.00
2018-06-28T00:58:46.580Z,2.00
2018-06-28T00:59:46.569Z,2.00
2018-06-28T01:00:46.510Z,2.00
2018-06-28T01:01:46.564Z,2.00
2018-06-28T01:02:46.679Z,1.90
2018-06-28T01:03:46.565Z,1.90
2018-06-28T01:04:46.668Z,1.90
2018-06-28T01:05:46.660Z,1.90
2018-06-28T01:06:46.679Z,1.90
2018-06-28T01:07:46.626Z,1.90
2018-06-28T01:08:46.582Z,1.90
2018-06-28T01:09:46.680Z,1.90
2018-06-28T01:10:46.650Z,1.90
2018-06-28T01:11:46.646Z,1.90
2018-06-28T01:12:46.567Z,2.20
2018-06-28T01:13:46.610Z,2.20
2018-06-28T01:14:46.617Z,2.20
2018-06-28T01:15:46.622Z,2.20
2018-06-28T01:16:46.608Z,2.20
2018-06-28T01:17:46.680Z,2.20
2018-06-28T01:18:46.615Z,2.20
2018-06-28T01:19:46.685Z,2.20
2018-06-28T01:20:46.629Z,2.20
2018-06-28T01:21:46.694Z,2.20
2018-06-28T01:22:46.588Z,3.20
2018-06-28T01:23:46.660Z,3.20
2018-06-28T01:24:46.636Z,3.20
2018-06-28T01:25:46.589Z,3.20
2018-06-28T01:26:46.662Z,3.20
2018-06-28T01:27:46.663Z,3.20
2018-06-28T01:28:46.662Z,3.20
2018-06-28T01:29:46.593Z,3.20
2018-06-28T01:30:46.662Z,3.20
2018-06-28T01:31:46.664Z,3.20
2018-06-28T01:32:46.600Z,2.90
2018-06-28T01:33:46.662Z,2.90
2018-06-28T01:34:46.664Z,2.90
2018-06-28T01:35:46.665Z,2.90
2018-06-28T01:36:46.665Z,2.90
2018-06-28T01:37:46.616Z,2.90
2018-06-28T01:38:46.601Z,2.90
2018-06-28T01:39:46.671Z,2.90
2018-06-28T01:40:46.608Z,2.90
2018-06-28T01:41:46.669Z,2.90
2018-06-28T01:42:46.615Z,2.10
2018-06-28T01:43:46.575Z,2.10
2018-06-28T01:44:46.631Z,2.10
2018-06-28T01:45:46.640Z,2.10
2018-06-28T01:46:46.727Z,2.10
2018-06-28T01:47:46.683Z,2.10
2018-06-28T01:48:46.658Z,2.10
2018-06-28T01:49:46.672Z,2.10
2018-06-28T01:50:46.711Z,2.10
2018-06-28T01:51:46.672Z,2.10
2018-06-28T01:52:46.544Z,2.99
2018-06-28T01:53:46.671Z,2.99
2018-06-28T01:54:46.582Z,2.99
2018-06-28T01:55:46.618Z,2.99
2018-06-28T01:56:46.614Z,2.99
2018-06-28T01:57:46.665Z,2.99
2018-06-28T01:58:46.552Z,2.99
2018-06-28T01:59:46.679Z,2.99
2018-06-28T02:00:46.615Z,2.99
2018-06-28T02:01:46.678Z,2.99
2018-06-28T02:02:46.682Z,1.90
2018-06-28T02:03:46.620Z,1.90
2018-06-28T02:04:46.669Z,1.90
2018-06-28T02:05:46.723Z,1.90
2018-06-28T02:06:46.646Z,1.90
2018-06-28T02:07:46.717Z,1.90
2018-06-28T02:08:46.717Z,1.90
2018-06-28T02:09:46.614Z,1.90
2018-06-28T02:10:46.727Z,1.90
2018-06-28T02:11:46.641Z,1.90
2018-06-28T02:12:46.721Z,1.90
2018-06-28T02:13:46.613Z,2.40
2018-06-28T02:14:46.688Z,2.40
2018-06-28T02:15:46.691Z,2.40
2018-06-28T02:16:46.696Z,2.40
2018-06-28T02:17:46.725Z,2.40
2018-06-28T02:18:46.716Z,2.40
2018-06-28T02:19:46.658Z,2.40
2018-06-28T02:20:46.599Z,2.40
2018-06-28T02:21:46.632Z,2.40
2018-06-28T02:22:46.593Z,2.40
2018-06-28T02:23:46.751Z,2.40
2018-06-28T02:24:46.720Z,2.40
2018-06-28T02:25:46.718Z,2.40
2018-06-28T02:26:46.727Z,2.40
2018-06-28T02:27:46.719Z,2.40
2018-06-28T02:28:46.728Z,2.40
2018-06-28T02:29:46.663Z,2.40
2018-06-28T02:30:46.606Z,2.40
2018-06-28T02:31:46.731Z,2.40
2018-06-28T02:32:46.723Z,2.40
2018-06-28T02:33:46.704Z,4.99
2018-06-28T02:34:46.641Z,4.99
2018-06-28T02:35:46.636Z,4.99
2018-06-28T02:36:46.705Z,4.99
2018-06-28T02:37:46.639Z,4.99
2018-06-28T02:38:46.646Z,4.99
2018-06-28T02:39:46.706Z,4.99
2018-06-28T02:40:46.644Z,4.99
2018-06-28T02:41:46.710Z,4.99
2018-06-28T02:42:46.728Z,4.99
2018-06-28T02:43:46.708Z,2.90
2018-06-28T02:44:46.709Z,2.90
2018-06-28T02:45:46.643Z,2.90
2018-06-28T02:46:46.653Z,2.90
2018-06-28T02:47:46.646Z,2.90
2018-06-28T02:48:46.650Z,2.90
2018-06-28T02:49:46.652Z,2.90
2018-06-28T02:50:46.721Z,2.90
2018-06-28T02:51:46.657Z,2.90
2018-06-28T02:52:46.648Z,2.90
2018-06-28T02:53:46.677Z,2.60
2018-06-28T02:54:46.657Z,2.60
2018-06-28T02:55:46.637Z,2.60
2018-06-28T02:56:46.675Z,2.60
2018-06-28T02:57:46.587Z,2.60
2018-06-28T02:58:46.677Z,2.60
2018-06-28T02:59:46.712Z,2.60
2018-06-28T03:00:46.659Z,2.60
2018-06-28T03:01:46.749Z,2.60
2018-06-28T03:02:46.649Z,2.60
2018-06-28T03:03:46.624Z,2.90
2018-06-28T03:04:46.648Z,2.90
2018-06-28T03:05:46.743Z,2.90
2018-06-28T03:06:46.838Z,2.90
2018-06-28T03:07:46.756Z,2.90
2018-06-28T03:08:46.732Z,2.90
2018-06-28T03:09:46.731Z,2.90
2018-06-28T03:10:46.701Z,2.90
2018-06-28T03:11:46.694Z,2.90
2018-06-28T03:12:46.668Z,2.90
2018-06-28T03:13:46.653Z,3.10
2018-06-28T03:14:46.726Z,3.10
2018-06-28T03:15:46.727Z,3.10
2018-06-28T03:16:46.656Z,3.10
2018-06-28T03:17:46.728Z,3.10
2018-06-28T03:18:46.721Z,3.10
2018-06-28T03:19:46.723Z,3.10
2018-06-28T03:20:46.651Z,3.10
2018-06-28T03:21:46.721Z,3.10
2018-06-28T03:22:46.730Z,3.10
2018-06-28T03:23:46.752Z,2.60
2018-06-28T03:24:46.684Z,2.60
2018-06-28T03:25:46.762Z,2.60
2018-06-28T03:26:46.677Z,2.60
2018-06-28T03:27:46.777Z,2.60
2018-06-28T03:28:46.736Z,2.60
2018-06-28T03:29:46.652Z,2.60
2018-06-28T03:30:46.660Z,2.60
2018-06-28T03:31:46.764Z,2.60
2018-06-28T03:32:46.706Z,2.60
2018-06-28T03:33:46.648Z,2.70
2018-06-28T03:34:46.708Z,2.70
2018-06-28T03:35:46.644Z,2.70
2018-06-28T03:36:46.746Z,2.70
2018-06-28T03:37:46.754Z,2.70
2018-06-28T03:38:46.745Z,2.70
2018-06-28T03:39:46.772Z,2.70
2018-06-28T03:40:46.745Z,2.70
2018-06-28T03:41:46.705Z,2.70
2018-06-28T03:42:46.783Z,2.70
2018-06-28T03:43:46.708Z,3.00
2018-06-28T03:44:46.667Z,3.00
2018-06-28T03:45:46.683Z,3.00
2018-06-28T03:46:46.677Z,3.00
2018-06-28T03:47:46.624Z,3.00
2018-06-28T03:48:46.620Z,3.00
2018-06-28T03:49:46.617Z,3.00
2018-06-28T03:50:46.709Z,3.00
2018-06-28T03:51:46.687Z,3.00
2018-06-28T03:52:46.732Z,3.00
2018-06-28T03:53:46.754Z,3.40
2018-06-28T03:54:46.761Z,3.40
2018-06-28T03:55:46.692Z,3.40
2018-06-28T03:56:46.756Z,3.40
2018-06-28T03:57:46.760Z,3.40
2018-06-28T03:58:46.690Z,3.40
2018-06-28T03:59:46.688Z,3.40
2018-06-28T04:00:46.757Z,3.40
2018-06-28T04:01:46.726Z,3.40
2018-06-28T04:02:46.782Z,3.40
2018-06-28T04:03:46.691Z,4.00
2018-06-28T04:04:46.648Z,4.00
2018-06-28T04:05:46.695Z,4.00
2018-06-28T04:06:46.701Z,4.00
2018-06-28T04:07:46.701Z,4.00
2018-06-28T04:08:46.656Z,4.00
2018-06-28T04:09:46.768Z,4.00
2018-06-28T04:10:46.632Z,4.00
2018-06-28T04:11:46.733Z,4.00
2018-06-28T04:12:46.704Z,4.00
2018-06-28T04:13:46.745Z,3.50
2018-06-28T04:14:46.776Z,3.50
2018-06-28T04:15:46.799Z,3.50
2018-06-28T04:16:46.773Z,3.50
2018-06-28T04:17:46.674Z,3.50
2018-06-28T04:18:46.738Z,3.50
2018-06-28T04:19:46.696Z,3.50
2018-06-28T04:20:46.675Z,3.50
2018-06-28T04:21:46.694Z,3.50
2018-06-28T04:22:46.812Z,3.50
2018-06-28T04:23:46.694Z,3.40
2018-06-28T04:24:46.745Z,3.40
2018-06-28T04:25:46.776Z,3.40
2018-06-28T04:26:46.779Z,3.40
2018-06-28T04:27:46.814Z,3.40
2018-06-28T04:28:46.750Z,3.40
2018-06-28T04:29:46.701Z,3.40
2018-06-28T04:30:46.700Z,3.40
2018-06-28T04:31:46.717Z,3.40
2018-06-28T04:32:46.812Z,3.40
2018-06-28T04:33:46.651Z,4.00
2018-06-28T04:34:46.745Z,4.00
2018-06-28T04:35:46.684Z,4.00
2018-06-28T04:36:46.739Z,4.00
2018-06-28T04:37:46.682Z,4.00
2018-06-28T04:38:46.708Z,4.00
2018-06-28T04:39:46.725Z,4.00
2018-06-28T04:40:46.674Z,4.00
2018-06-28T04:41:46.654Z,4.00
2018-06-28T04:42:46.682Z,4.00
2018-06-28T04:43:46.788Z,3.80
2018-06-28T04:44:46.788Z,3.80
2018-06-28T04:45:46.727Z,3.80
2018-06-28T04:46:46.798Z,3.80
2018-06-28T04:47:46.724Z,3.80
2018-06-28T04:48:46.722Z,3.80
2018-06-28T04:49:46.836Z,3.80
2018-06-28T04:50:46.851Z,3.80
2018-06-28T04:51:46.727Z,3.80
2018-06-28T04:52:46.727Z,3.80
2018-06-28T04:53:46.773Z,4.60
2018-06-28T04:54:46.872Z,4.60
2018-06-28T04:55:46.759Z,4.60
2018-06-28T04:56:46.696Z,4.60
2018-06-28T04:57:46.827Z,4.60
2018-06-28T04:58:46.793Z,4.60
2018-06-28T04:59:46.717Z,4.60
2018-06-28T05:00:46.823Z,4.60
2018-06-28T05:01:46.769Z,4.60
2018-06-28T05:02:46.805Z,4.60
2018-06-28T05:03:46.723Z,5.10
2018-06-28T05:04:46.784Z,5.10
2018-06-28T05:05:46.764Z,5.10
2018-06-28T05:06:46.760Z,5.10
2018-06-28T05:07:46.706Z,5.10
2018-06-28T05:08:46.767Z,5.10
2018-06-28T05:09:46.814Z,5.10
2018-06-28T05:10:46.825Z,5.10
2018-06-28T05:11:46.830Z,5.10
2018-06-28T05:12:46.831Z,5.10
2018-06-28T05:13:46.761Z,5.40
2018-06-28T05:14:46.789Z,5.40
2018-06-28T05:15:46.772Z,5.40
2018-06-28T05:16:46.830Z,5.40
2018-06-28T05:17:46.811Z,5.40
2018-06-28T05:18:46.780Z,5.40
2018-06-28T05:19:46.773Z,5.40
2018-06-28T05:20:46.814Z,5.40
2018-06-28T05:21:46.718Z,5.40
2018-06-28T05:22:46.853Z,5.40
2018-06-28T05:23:46.736Z,5.90
2018-06-28T05:24:46.722Z,5.90
2018-06-28T05:25:46.803Z,5.90
2018-06-28T05:26:46.810Z,5.90
2018-06-28T05:27:46.725Z,5.90
2018-06-28T05:28:46.806Z,5.90
2018-06-28T05:29:46.755Z,5.90
2018-06-28T05:30:46.685Z,5.90
2018-06-28T05:31:46.752Z,5.90
2018-06-28T05:32:46.809Z,5.90
2018-06-28T05:33:46.822Z,5.60
2018-06-28T05:34:46.893Z,5.60
2018-06-28T05:35:46.896Z,5.60
2018-06-28T05:36:46.724Z,5.60
2018-06-28T05:37:46.789Z,5.60
2018-06-28T05:38:46.787Z,5.60
2018-06-28T05:39:46.842Z,5.60
2018-06-28T05:40:46.858Z,5.60
2018-06-28T05:41:46.767Z,5.60
2018-06-28T05:42:46.797Z,5.60
2018-06-28T05:43:46.857Z,7.50
2018-06-28T05:44:46.734Z,7.50
2018-06-28T05:45:46.731Z,7.50
2018-06-28T05:46:46.789Z,7.50
2018-06-28T05:47:46.811Z,7.50
2018-06-28T05:48:46.848Z,7.50
2018-06-28T05:49:46.796Z,7.50
2018-06-28T05:50:46.829Z,7.50
2018-06-28T05:51:46.857Z,7.50
2018-06-28T05:52:46.774Z,7.50
2018-06-28T05:53:46.730Z,5.90
2018-06-28T05:54:46.756Z,5.90
2018-06-28T05:55:46.754Z,5.90
2018-06-28T05:56:46.836Z,5.90
2018-06-28T05:57:46.857Z,5.90
2018-06-28T05:58:46.876Z,5.90
2018-06-28T05:59:46.862Z,5.90
2018-06-28T06:00:46.809Z,5.90
2018-06-28T06:01:47.035Z,5.90
2018-06-28T06:02:46.794Z,5.90
2018-06-28T06:03:46.763Z,7.60
2018-06-28T06:04:46.877Z,7.60
2018-06-28T06:05:46.811Z,7.60
2018-06-28T06:06:46.879Z,7.60
2018-06-28T06:07:46.869Z,7.60
2018-06-28T06:08:46.823Z,7.60
2018-06-28T06:09:46.769Z,7.60
2018-06-28T06:10:46.748Z,7.60
2018-06-28T06:11:46.845Z,7.60
2018-06-28T06:12:46.828Z,7.60
2018-06-28T06:13:46.879Z,6.10
2018-06-28T06:14:46.809Z,6.10
2018-06-28T06:15:46.759Z,6.10
2018-06-28T06:16:46.850Z,6.10
2018-06-28T06:17:46.852Z,6.10
2018-06-28T06:18:46.817Z,6.10
2018-06-28T06:19:46.889Z,6.10
2018-06-28T06:20:46.831Z,6.10
2018-06-28T06:21:46.898Z,6.10
2018-06-28T06:22:46.760Z,6.10
2018-06-28T06:23:46.759Z,8.60
2018-06-28T06:24:46.882Z,8.60
2018-06-28T06:25:46.813Z,8.60
2018-06-28T06:26:46.878Z,8.60
2018-06-28T06:27:46.887Z,8.60
2018-06-28T06:28:46.858Z,8.60
2018-06-28T06:29:46.861Z,8.60
2018-06-28T06:30:46.836Z,8.60
2018-06-28T06:31:46.887Z,8.60
2018-06-28T06:32:46.934Z,8.60
2018-06-28T06:33:46.756Z,6.30
2018-06-28T06:34:46.821Z,6.30
2018-06-28T06:35:46.760Z,6.30
2018-06-28T06:36:46.900Z,6.30
2018-06-28T06:37:46.904Z,6.30
2018-06-28T06:38:46.767Z,6.30
2018-06-28T06:39:46.769Z,6.30
2018-06-28T06:40:46.885Z,6.30
2018-06-28T06:41:46.877Z,6.30
2018-06-28T06:42:46.884Z,6.30
2018-06-28T06:43:46.820Z,5.70
2018-06-28T06:44:46.858Z,5.70
2018-06-28T06:45:46.777Z,5.70
2018-06-28T06:46:46.863Z,5.70
2018-06-28T06:47:46.774Z,5.70
2018-06-28T06:48:46.854Z,5.70
2018-06-28T06:49:46.800Z,5.70
2018-06-28T06:50:46.759Z,5.70
2018-06-28T06:51:46.743Z,5.70
2018-06-28T06:52:46.745Z,5.70
2018-06-28T06:53:46.862Z,5.80
2018-06-28T06:54:46.830Z,5.80
2018-06-28T06:55:46.763Z,5.80
2018-06-28T06:56:46.827Z,5.80
2018-06-28T06:57:46.766Z,5.80
2018-06-28T06:58:46.803Z,5.80
2018-06-28T06:59:46.864Z,5.80
2018-06-28T07:00:46.769Z,5.80
2018-06-28T07:01:46.837Z,5.80
2018-06-28T07:02:46.811Z,5.80
2018-06-28T07:03:46.912Z,6.80
2018-06-28T07:04:46.905Z,6.80
2018-06-28T07:05:46.907Z,6.80
2018-06-28T07:06:46.880Z,6.80
2018-06-28T07:07:46.887Z,6.80
2018-06-28T07:08:46.904Z,6.80
2018-06-28T07:09:46.915Z,6.80
2018-06-28T07:10:46.908Z,6.80
2018-06-28T07:11:46.862Z,6.80
2018-06-28T07:12:46.786Z,6.80
2018-06-28T07:13:46.882Z,7.30
2018-06-28T07:14:46.845Z,7.30
2018-06-28T07:15:46.929Z,7.30
2018-06-28T07:16:46.891Z,7.30
2018-06-28T07:17:46.889Z,7.30
2018-06-28T07:18:46.823Z,7.30
2018-06-28T07:19:46.896Z,7.30
2018-06-28T07:20:46.826Z,7.30
2018-06-28T07:21:46.894Z,7.30
2018-06-28T07:22:46.965Z,7.30
2018-06-28T07:23:46.919Z,5.50
2018-06-28T07:24:46.800Z,5.50
2018-06-28T07:25:46.853Z,5.50
2018-06-28T07:26:46.922Z,5.50
2018-06-28T07:27:46.877Z,5.50
2018-06-28T07:28:46.880Z,5.50
2018-06-28T07:29:46.839Z,5.50
2018-06-28T07:30:46.879Z,5.50
2018-06-28T07:31:46.837Z,5.50
2018-06-28T07:32:46.975Z,5.50
2018-06-28T07:33:46.837Z,4.60
2018-06-28T07:34:46.801Z,4.60
2018-06-28T07:35:46.905Z,4.60
2018-06-28T07:36:46.903Z,4.60
2018-06-28T07:37:46.853Z,4.60
2018-06-28T07:38:46.903Z,4.60
2018-06-28T07:39:46.904Z,4.60
2018-06-28T07:40:46.837Z,4.60
2018-06-28T07:41:46.853Z,4.60
2018-06-28T07:42:46.911Z,4.60
2018-06-28T07:43:46.840Z,4.40
2018-06-28T07:44:46.907Z,4.40
2018-06-28T07:45:46.840Z,4.40
2018-06-28T07:46:46.944Z,4.40
2018-06-28T07:47:47.089Z,4.40
2018-06-28T07:48:46.851Z,4.40
2018-06-28T07:49:47.097Z,4.40
2018-06-28T07:50:47.079Z,4.40
2018-06-28T07:51:46.851Z,4.40
2018-06-28T07:52:46.846Z,4.40
2018-06-28T07:53:46.918Z,8.50
2018-06-28T07:54:46.914Z,8.50
2018-06-28T07:55:46.982Z,8.50
2018-06-28T07:56:46.847Z,8.50
2018-06-28T07:57:46.919Z,8.50
2018-06-28T07:58:46.851Z,8.50
2018-06-28T07:59:47.009Z,8.50
2018-06-28T08:00:46.918Z,8.50
2018-06-28T08:01:46.856Z,8.50
2018-06-28T08:02:46.854Z,8.50
2018-06-28T08:03:46.876Z,8.50
2018-06-28T08:04:46.886Z,5.40
2018-06-28T08:05:46.884Z,5.40
2018-06-28T08:06:46.833Z,5.40
2018-06-28T08:07:46.900Z,5.40
2018-06-28T08:08:46.941Z,5.40
2018-06-28T08:09:47.005Z,5.40
2018-06-28T08:10:46.900Z,5.40
2018-06-28T08:11:46.894Z,5.40
2018-06-28T08:12:46.928Z,5.40
2018-06-28T08:13:46.953Z,5.40
2018-06-28T08:14:46.903Z,3.90
2018-06-28T08:15:46.890Z,3.90
2018-06-28T08:16:46.910Z,3.90
2018-06-28T08:17:46.895Z,3.90
2018-06-28T08:18:46.837Z,3.90
2018-06-28T08:19:46.916Z,3.90
2018-06-28T08:20:46.928Z,3.90
2018-06-28T08:21:46.972Z,3.90
2018-06-28T08:22:46.970Z,3.90
2018-06-28T08:23:46.907Z,3.90
2018-06-28T08:24:46.936Z,3.40
2018-06-28T08:25:46.953Z,3.40
2018-06-28T08:26:46.840Z,3.40
2018-06-28T08:27:46.954Z,3.40
2018-06-28T08:28:46.959Z,3.40
2018-06-28T08:29:46.966Z,3.40
2018-06-28T08:30:46.937Z,3.40
2018-06-28T08:31:46.978Z,3.40
2018-06-28T08:32:46.974Z,3.40
2018-06-28T08:33:46.842Z,3.40
2018-06-28T08:34:46.874Z,3.99
2018-06-28T08:35:46.909Z,3.99
2018-06-28T08:36:46.939Z,3.99
2018-06-28T08:37:46.876Z,3.99
2018-06-28T08:38:46.956Z,3.99
2018-06-28T08:39:46.919Z,3.99
2018-06-28T08:40:46.880Z,3.99
2018-06-28T08:41:46.877Z,3.99
2018-06-28T08:42:46.945Z,3.99
2018-06-28T08:43:46.947Z,3.99
2018-06-28T08:44:46.867Z,2.00
2018-06-28T08:45:46.867Z,2.00
2018-06-28T08:46:46.934Z,2.00
2018-06-28T08:47:46.857Z,2.00
2018-06-28T08:48:46.944Z,2.00
2018-06-28T08:49:46.887Z,2.00
2018-06-28T08:50:46.858Z,2.00
2018-06-28T08:51:46.935Z,2.00
2018-06-28T08:52:46.856Z,2.00
2018-06-28T08:53:46.862Z,2.00
2018-06-28T08:54:46.914Z,2.40
2018-06-28T08:55:47.036Z,2.40
2018-06-28T08:56:46.978Z,2.40
2018-06-28T08:57:47.024Z,2.40
2018-06-28T08:58:46.981Z,2.40
2018-06-28T08:59:46.919Z,2.40
2018-06-28T09:00:46.936Z,2.40
2018-06-28T09:01:46.975Z,2.40
2018-06-28T09:02:46.987Z,2.40
2018-06-28T09:03:46.898Z,2.40
2018-06-28T09:04:46.863Z,2.40
2018-06-28T09:05:46.978Z,2.40
2018-06-28T09:06:46.915Z,2.40
2018-06-28T09:07:46.963Z,2.40
2018-06-28T09:08:46.953Z,2.40
2018-06-28T09:09:46.954Z,2.40
2018-06-28T09:10:46.895Z,2.40
2018-06-28T09:11:46.894Z,2.40
2018-06-28T09:12:46.900Z,2.40
2018-06-28T09:13:46.958Z,2.40
2018-06-28T09:14:46.991Z,2.80
2018-06-28T09:15:46.999Z,2.80
2018-06-28T09:16:46.888Z,2.80
2018-06-28T09:17:46.934Z,2.80
2018-06-28T09:18:46.944Z,2.80
2018-06-28T09:19:46.907Z,2.80
2018-06-28T09:20:46.876Z,2.80
2018-06-28T09:21:46.967Z,2.80
2018-06-28T09:22:47.058Z,2.80
2018-06-28T09:23:46.999Z,2.80
2018-06-28T09:24:47.007Z,2.10
2018-06-28T09:25:46.897Z,2.10
2018-06-28T09:26:47.056Z,2.10
2018-06-28T09:27:46.955Z,2.10
2018-06-28T09:28:46.900Z,2.10
2018-06-28T09:29:47.004Z,2.10
2018-06-28T09:30:46.958Z,2.10
2018-06-28T09:31:46.981Z,2.10
2018-06-28T09:32:46.935Z,2.10
2018-06-28T09:33:46.949Z,2.10
2018-06-28T09:34:46.943Z,2.80
2018-06-28T09:35:46.954Z,2.80
2018-06-28T09:36:47.012Z,2.80
2018-06-28T09:37:46.945Z,2.80
2018-06-28T09:38:46.908Z,2.80
2018-06-28T09:39:46.944Z,2.80
2018-06-28T09:40:47.005Z,2.80
2018-06-28T09:41:46.942Z,2.80
2018-06-28T09:42:46.983Z,2.80
2018-06-28T09:43:47.002Z,2.80
2018-06-28T09:44:46.922Z,4.30
2018-06-28T09:45:46.925Z,4.30
2018-06-28T09:46:46.988Z,4.30
2018-06-28T09:47:46.988Z,4.30
2018-06-28T09:48:47.083Z,4.30
2018-06-28T09:49:46.990Z,4.30
2018-06-28T09:50:46.989Z,4.30
2018-06-28T09:51:46.927Z,4.30
2018-06-28T09:52:47.032Z,4.30
2018-06-28T09:53:46.932Z,4.30
2018-06-28T09:54:46.999Z,2.00
2018-06-28T09:55:46.869Z,2.00
2018-06-28T09:56:46.972Z,2.00
2018-06-28T09:57:46.975Z,2.00
2018-06-28T09:58:46.986Z,2.00
2018-06-28T09:59:46.934Z,2.00
2018-06-28T10:00:46.983Z,2.00
2018-06-28T10:01:46.862Z,2.00
2018-06-28T10:02:46.993Z,2.00
2018-06-28T10:03:46.924Z,2.00
2018-06-28T10:04:46.889Z,2.40
2018-06-28T10:05:46.989Z,2.40
2018-06-28T10:06:47.031Z,2.40
2018-06-28T10:07:46.986Z,2.40
2018-06-28T10:08:46.954Z,2.40
2018-06-28T10:09:46.943Z,2.40
2018-06-28T10:10:46.923Z,2.40
2018-06-28T10:11:46.955Z,2.40
2018-06-28T10:12:47.011Z,2.40
2018-06-28T10:13:46.934Z,2.40
2018-06-28T10:14:47.040Z,2.20
2018-06-28T10:15:46.870Z,2.20
2018-06-28T10:16:46.986Z,2.20
2018-06-28T10:17:46.931Z,2.20
2018-06-28T10:18:46.993Z,2.20
2018-06-28T10:19:46.947Z,2.20
2018-06-28T10:20:46.920Z,2.20
2018-06-28T10:21:46.935Z,2.20
2018-06-28T10:22:46.992Z,2.20
2018-06-28T10:23:46.937Z,2.20
2018-06-28T10:24:47.015Z,3.30
2018-06-28T10:25:47.023Z,3.30
2018-06-28T10:26:47.014Z,3.30
2018-06-28T10:27:46.964Z,3.30
2018-06-28T10:28:47.016Z,3.30
2018-06-28T10:29:46.952Z,3.30
2018-06-28T10:30:47.034Z,3.30
2018-06-28T10:31:46.904Z,3.30
2018-06-28T10:32:47.000Z,3.30
2018-06-28T10:33:46.945Z,3.30
2018-06-28T10:34:46.891Z,2.40
2018-06-28T10:35:46.892Z,2.40
2018-06-28T10:36:46.975Z,2.40
2018-06-28T10:37:47.007Z,2.40
2018-06-28T10:38:46.926Z,2.40
2018-06-28T10:39:47.005Z,2.40
2018-06-28T10:40:47.014Z,2.40
2018-06-28T10:41:47.010Z,2.40
2018-06-28T10:42:47.018Z,2.40
2018-06-28T10:43:47.011Z,2.40
2018-06-28T10:44:46.932Z,2.40
2018-06-28T10:45:46.948Z,2.40
2018-06-28T10:46:47.007Z,2.40
2018-06-28T10:47:46.970Z,2.40
2018-06-28T10:48:47.046Z,2.40
2018-06-28T10:49:47.033Z,2.40
2018-06-28T10:50:46.950Z,2.40
2018-06-28T10:51:47.009Z,2.40
2018-06-28T10:52:46.932Z,2.40
2018-06-28T10:53:46.999Z,2.40
2018-06-28T10:54:47.018Z,3.00
2018-06-28T10:55:46.964Z,3.00
2018-06-28T10:56:46.968Z,3.00
2018-06-28T10:57:46.923Z,3.00
2018-06-28T10:58:47.021Z,3.00
2018-06-28T10:59:46.941Z,3.00
2018-06-28T11:00:46.938Z,3.00
2018-06-28T11:01:46.978Z,3.00
2018-06-28T11:02:46.918Z,3.00
2018-06-28T11:03:46.990Z,3.00
2018-06-28T11:04:47.181Z,2.40
2018-06-28T11:05:46.950Z,2.40
2018-06-28T11:06:47.044Z,2.40
2018-06-28T11:07:47.015Z,2.40
2018-06-28T11:08:47.074Z,2.40
2018-06-28T11:09:47.067Z,2.40
2018-06-28T11:10:46.857Z,2.40
2018-06-28T11:11:47.008Z,2.40
2018-06-28T11:12:47.006Z,2.40
2018-06-28T11:13:47.074Z,2.40
2018-06-28T11:14:46.955Z,2.99
2018-06-28T11:15:47.079Z,2.99
2018-06-28T11:16:47.018Z,2.99
2018-06-28T11:17:46.990Z,2.99
2018-06-28T11:18:47.030Z,2.99
2018-06-28T11:19:47.013Z,2.99
2018-06-28T11:20:47.023Z,2.99
2018-06-28T11:21:47.008Z,2.99
2018-06-28T11:22:47.084Z,2.99
2018-06-28T11:23:47.033Z,2.99
2018-06-28T11:24:47.080Z,2.60
2018-06-28T11:25:47.149Z,2.60
2018-06-28T11:26:46.959Z,2.60
2018-06-28T11:27:47.019Z,2.60
2018-06-28T11:28:47.014Z,2.60
2018-06-28T11:29:47.014Z,2.60
2018-06-28T11:30:47.021Z,2.60
2018-06-28T11:31:47.085Z,2.60
2018-06-28T11:32:47.034Z,2.60
2018-06-28T11:33:47.058Z,2.60
2018-06-28T11:34:47.061Z,2.99
2018-06-28T11:35:47.064Z,2.99
2018-06-28T11:36:47.062Z,2.99
2018-06-28T11:37:46.998Z,2.99
2018-06-28T11:38:46.995Z,2.99
2018-06-28T11:39:47.065Z,2.99
2018-06-28T11:40:47.081Z,2.99
2018-06-28T11:41:47.065Z,2.99
2018-06-28T11:42:47.025Z,2.99
2018-06-28T11:43:47.063Z,2.99
2018-06-28T11:44:47.049Z,2.80
2018-06-28T11:45:46.988Z,2.80
2018-06-28T11:46:47.007Z,2.80
2018-06-28T11:47:47.074Z,2.80
2018-06-28T11:48:47.048Z,2.80
2018-06-28T11:49:47.094Z,2.80
2018-06-28T11:50:47.047Z,2.80
2018-06-28T11:51:47.045Z,2.80
2018-06-28T11:52:47.094Z,2.80
2018-06-28T11:53:47.111Z,2.80
2018-06-28T11:54:47.008Z,4.30
2018-06-28T11:55:47.038Z,4.30
2018-06-28T11:56:47.101Z,4.30
2018-06-28T11:57:46.982Z,4.30
2018-06-28T11:58:47.114Z,4.30
2018-06-28T11:59:47.031Z,4.30
2018-06-28T12:00:47.112Z,4.30
2018-06-28T12:01:46.986Z,4.30
2018-06-28T12:02:47.048Z,4.30
2018-06-28T12:03:47.107Z,4.30
2018-06-28T12:04:47.064Z,2.50
2018-06-28T12:05:46.942Z,2.50
2018-06-28T12:06:46.951Z,2.50
2018-06-28T12:07:46.957Z,2.50
2018-06-28T12:08:46.943Z,2.50
2018-06-28T12:09:47.007Z,2.50
2018-06-28T12:10:47.061Z,2.50
2018-06-28T12:11:47.008Z,2.50
2018-06-28T12:12:47.009Z,2.50
2018-06-28T12:13:47.019Z,2.50
2018-06-28T12:14:47.091Z,2.50
2018-06-28T12:15:47.022Z,2.50
2018-06-28T12:16:46.982Z,2.50
2018-06-28T12:17:47.095Z,2.50
2018-06-28T12:18:47.099Z,2.50
2018-06-28T12:19:47.025Z,2.50
2018-06-28T12:20:47.093Z,2.50
2018-06-28T12:21:47.095Z,2.50
2018-06-28T12:22:47.024Z,2.50
2018-06-28T12:23:47.030Z,2.50
2018-06-28T12:24:47.075Z,3.00
2018-06-28T12:25:47.113Z,3.00
2018-06-28T12:26:47.078Z,3.00
2018-06-28T12:27:46.999Z,3.00
2018-06-28T12:28:47.031Z,3.00
2018-06-28T12:29:47.030Z,3.00
2018-06-28T12:30:46.970Z,3.00
2018-06-28T12:31:46.998Z,3.00
2018-06-28T12:32:47.019Z,3.00
2018-06-28T12:33:47.102Z,3.00
2018-06-28T12:34:47.030Z,2.50
2018-06-28T12:35:47.101Z,2.50
2018-06-28T12:36:47.101Z,2.50
2018-06-28T12:37:47.034Z,2.50
2018-06-28T12:38:47.102Z,2.50
2018-06-28T12:39:47.103Z,2.50
2018-06-28T12:40:47.105Z,2.50
2018-06-28T12:41:47.106Z,2.50
2018-06-28T12:42:47.035Z,2.50
2018-06-28T12:43:47.036Z,2.50
2018-06-28T12:44:47.059Z,2.60
2018-06-28T12:45:47.070Z,2.60
2018-06-28T12:46:47.143Z,2.60
2018-06-28T12:47:47.109Z,2.60
2018-06-28T12:48:47.145Z,2.60
2018-06-28T12:49:47.134Z,2.60
2018-06-28T12:50:47.072Z,2.60
2018-06-28T12:51:47.049Z,2.60
2018-06-28T12:52:47.137Z,2.60
2018-06-28T12:53:47.078Z,2.60
2018-06-28T12:54:47.015Z,2.70
2018-06-28T12:55:47.015Z,2.70
2018-06-28T12:56:47.091Z,2.70
2018-06-28T12:57:47.089Z,2.70
2018-06-28T12:58:47.145Z,2.70
2018-06-28T12:59:47.103Z,2.70
2018-06-28T13:00:47.093Z,2.70
2018-06-28T13:01:47.086Z,2.70
2018-06-28T13:02:47.119Z,2.70
2018-06-28T13:03:47.016Z,2.70
2018-06-28T13:04:47.079Z,2.90
2018-06-28T13:05:47.034Z,2.90
2018-06-28T13:06:47.123Z,2.90
2018-06-28T13:07:47.162Z,2.90
2018-06-28T13:08:47.029Z,2.90
2018-06-28T13:09:47.024Z,2.90
2018-06-28T13:10:47.095Z,2.90
2018-06-28T13:11:47.026Z,2.90
2018-06-28T13:12:47.190Z,2.90
2018-06-28T13:13:47.026Z,2.90
2018-06-28T13:14:47.132Z,4.20
2018-06-28T13:15:47.148Z,4.20
2018-06-28T13:16:47.066Z,4.20
2018-06-28T13:17:47.064Z,4.20
2018-06-28T13:18:47.231Z,4.20